sensor_id;sensor_type;location;lat;lon;timestamp;P1;durP1;ratioP1;P2;durP2;ratioP2
44973;SDS011;60981;50.720;11.342;2024-01-30T00:00:26;3.97;;;2.35;;
44973;SDS011;60981;50.720;11.342;2024-01-30T00:01:31;3.13;;;1.70;;
44973;SDS011;60981;50.720;11.342;2024-01-30T00:02:39;3.92;;;1.60;;
44973;SDS011;60981;50.720;11.342;2024-01-30T00:03:41;5.75;;;2.25;;
44973;SDS011;60981;50.720;11.342;2024-01-30T00:04:47;8.20;;;2.17;;
44973;SDS011;60981;50.720;11.342;2024-01-30T00:05:50;5.30;;;2.33;;
44973;SDS011;60981;50.720;11.342;2024-01-30T00:06:53;4.28;;;2.05;;
44973;SDS011;60981;50.720;11.342;2024-01-30T00:07:57;4.30;;;2.08;;
44973;SDS011;60981;50.720;11.342;2024-01-30T00:09:00;5.45;;;2.30;;
44973;SDS011;60981;50.720;11.342;2024-01-30T00:10:04;4.15;;;1.88;;
44973;SDS011;60981;50.720;11.342;2024-01-30T00:11:08;2.95;;;1.90;;
44973;SDS011;60981;50.720;11.342;2024-01-30T00:12:14;5.30;;;2.13;;
44973;SDS011;60981;50.720;11.342;2024-01-30T00:13:19;3.03;;;1.70;;
44973;SDS011;60981;50.720;11.342;2024-01-30T00:14:22;4.30;;;1.45;;
44973;SDS011;60981;50.720;11.342;2024-01-30T00:15:24;5.40;;;2.00;;
44973;SDS011;60981;50.720;11.342;2024-01-30T00:16:34;5.55;;;2.50;;
44973;SDS011;60981;50.720;11.342;2024-01-30T00:17:40;2.78;;;1.63;;
44973;SDS011;60981;50.720;11.342;2024-01-30T00:18:45;8.27;;;1.58;;
44973;SDS011;60981;50.720;11.342;2024-01-30T00:19:50;5.30;;;2.03;;
44973;SDS011;60981;50.720;11.342;2024-01-30T00:20:53;4.70;;;2.38;;
44973;SDS011;60981;50.720;11.342;2024-01-30T00:21:56;3.25;;;1.63;;
44973;SDS011;60981;50.720;11.342;2024-01-30T00:22:58;4.18;;;2.25;;
44973;SDS011;60981;50.720;11.342;2024-01-30T00:24:05;4.82;;;2.38;;
44973;SDS011;60981;50.720;11.342;2024-01-30T00:25:08;2.92;;;1.67;;
44973;SDS011;60981;50.720;11.342;2024-01-30T00:26:14;5.07;;;2.10;;
44973;SDS011;60981;50.720;11.342;2024-01-30T00:27:19;3.25;;;1.88;;
44973;SDS011;60981;50.720;11.342;2024-01-30T00:28:25;5.88;;;1.88;;
44973;SDS011;60981;50.720;11.342;2024-01-30T00:29:27;3.38;;;2.13;;
44973;SDS011;60981;50.720;11.342;2024-01-30T00:30:35;5.40;;;2.17;;
44973;SDS011;60981;50.720;11.342;2024-01-30T00:31:41;5.28;;;1.63;;
44973;SDS011;60981;50.720;11.342;2024-01-30T00:32:44;4.03;;;1.88;;
44973;SDS011;60981;50.720;11.342;2024-01-30T00:33:49;5.45;;;1.92;;
44973;SDS011;60981;50.720;11.342;2024-01-30T00:34:55;2.85;;;1.42;;
44973;SDS011;60981;50.720;11.342;2024-01-30T00:36:02;4.03;;;1.83;;
44973;SDS011;60981;50.720;11.342;2024-01-30T00:37:03;5.70;;;2.17;;
44973;SDS011;60981;50.720;11.342;2024-01-30T00:38:06;5.38;;;2.78;;
44973;SDS011;60981;50.720;11.342;2024-01-30T00:39:13;4.75;;;2.83;;
44973;SDS011;60981;50.720;11.342;2024-01-30T00:42:35;2.17;;;1.23;;
44973;SDS011;60981;50.720;11.342;2024-01-30T00:43:41;6.28;;;1.85;;
44973;SDS011;60981;50.720;11.342;2024-01-30T00:44:44;4.57;;;1.80;;
44973;SDS011;60981;50.720;11.342;2024-01-30T00:45:47;4.72;;;2.17;;
44973;SDS011;60981;50.720;11.342;2024-01-30T00:46:50;10.90;;;2.30;;
44973;SDS011;60981;50.720;11.342;2024-01-30T00:47:52;5.25;;;2.78;;
44973;SDS011;60981;50.720;11.342;2024-01-30T00:48:57;3.58;;;1.95;;
44973;SDS011;60981;50.720;11.342;2024-01-30T00:50:00;5.07;;;2.50;;
44973;SDS011;60981;50.720;11.342;2024-01-30T00:51:06;5.45;;;2.80;;
44973;SDS011;60981;50.720;11.342;2024-01-30T00:52:14;11.02;;;2.92;;
44973;SDS011;60981;50.720;11.342;2024-01-30T00:53:20;4.32;;;2.72;;
44973;SDS011;60981;50.720;11.342;2024-01-30T00:54:28;7.50;;;3.17;;
44973;SDS011;60981;50.720;11.342;2024-01-30T00:55:29;6.63;;;3.08;;
44973;SDS011;60981;50.720;11.342;2024-01-30T00:56:33;4.75;;;1.95;;
44973;SDS011;60981;50.720;11.342;2024-01-30T00:57:38;3.05;;;1.65;;
44973;SDS011;60981;50.720;11.342;2024-01-30T00:58:46;4.50;;;1.15;;
44973;SDS011;60981;50.720;11.342;2024-01-30T00:59:50;6.63;;;2.10;;
44973;SDS011;60981;50.720;11.342;2024-01-30T01:00:53;3.75;;;2.47;;
44973;SDS011;60981;50.720;11.342;2024-01-30T01:02:00;5.07;;;2.67;;
44973;SDS011;60981;50.720;11.342;2024-01-30T01:04:25;6.90;;;2.30;;
44973;SDS011;60981;50.720;11.342;2024-01-30T01:05:29;4.53;;;2.50;;
44973;SDS011;60981;50.720;11.342;2024-01-30T01:06:34;5.03;;;2.33;;
44973;SDS011;60981;50.720;11.342;2024-01-30T01:07:38;4.97;;;2.33;;
44973;SDS011;60981;50.720;11.342;2024-01-30T01:08:48;2.38;;;1.60;;
44973;SDS011;60981;50.720;11.342;2024-01-30T01:10:03;3.42;;;1.63;;
44973;SDS011;60981;50.720;11.342;2024-01-30T01:11:07;5.03;;;1.33;;
44973;SDS011;60981;50.720;11.342;2024-01-30T01:12:10;5.45;;;3.08;;
44973;SDS011;60981;50.720;11.342;2024-01-30T01:13:18;5.72;;;3.03;;
44973;SDS011;60981;50.720;11.342;2024-01-30T01:14:25;4.68;;;2.55;;
44973;SDS011;60981;50.720;11.342;2024-01-30T01:15:28;4.57;;;2.03;;
44973;SDS011;60981;50.720;11.342;2024-01-30T01:16:33;4.70;;;1.95;;
44973;SDS011;60981;50.720;11.342;2024-01-30T01:17:39;4.40;;;2.17;;
44973;SDS011;60981;50.720;11.342;2024-01-30T01:18:42;3.85;;;1.90;;
44973;SDS011;60981;50.720;11.342;2024-01-30T01:19:46;5.32;;;2.47;;
44973;SDS011;60981;50.720;11.342;2024-01-30T01:20:49;6.22;;;2.50;;
44973;SDS011;60981;50.720;11.342;2024-01-30T01:21:56;6.00;;;2.80;;
44973;SDS011;60981;50.720;11.342;2024-01-30T01:23:00;3.55;;;1.80;;
44973;SDS011;60981;50.720;11.342;2024-01-30T01:24:03;7.90;;;2.67;;
44973;SDS011;60981;50.720;11.342;2024-01-30T01:25:09;3.90;;;2.45;;
44973;SDS011;60981;50.720;11.342;2024-01-30T01:26:15;7.05;;;4.70;;
44973;SDS011;60981;50.720;11.342;2024-01-30T01:27:21;7.32;;;4.07;;
44973;SDS011;60981;50.720;11.342;2024-01-30T01:28:25;6.63;;;3.20;;
44973;SDS011;60981;50.720;11.342;2024-01-30T01:29:32;7.68;;;3.95;;
44973;SDS011;60981;50.720;11.342;2024-01-30T01:30:35;8.05;;;3.78;;
44973;SDS011;60981;50.720;11.342;2024-01-30T01:31:40;9.70;;;3.50;;
44973;SDS011;60981;50.720;11.342;2024-01-30T01:32:49;5.20;;;2.95;;
44973;SDS011;60981;50.720;11.342;2024-01-30T01:33:58;7.43;;;3.83;;
44973;SDS011;60981;50.720;11.342;2024-01-30T01:35:04;5.07;;;3.05;;
44973;SDS011;60981;50.720;11.342;2024-01-30T01:36:10;6.63;;;3.30;;
44973;SDS011;60981;50.720;11.342;2024-01-30T01:37:12;6.10;;;2.55;;
44973;SDS011;60981;50.720;11.342;2024-01-30T01:38:15;8.25;;;2.75;;
44973;SDS011;60981;50.720;11.342;2024-01-30T01:39:22;4.50;;;2.65;;
44973;SDS011;60981;50.720;11.342;2024-01-30T01:40:29;5.90;;;2.55;;
44973;SDS011;60981;50.720;11.342;2024-01-30T01:41:33;8.18;;;3.25;;
44973;SDS011;60981;50.720;11.342;2024-01-30T01:42:38;4.63;;;2.30;;
44973;SDS011;60981;50.720;11.342;2024-01-30T01:43:42;6.07;;;2.58;;
44973;SDS011;60981;50.720;11.342;2024-01-30T01:44:45;3.92;;;1.98;;
44973;SDS011;60981;50.720;11.342;2024-01-30T01:45:51;3.85;;;1.52;;
44973;SDS011;60981;50.720;11.342;2024-01-30T01:46:56;3.65;;;2.10;;
44973;SDS011;60981;50.720;11.342;2024-01-30T01:47:59;3.35;;;1.65;;
44973;SDS011;60981;50.720;11.342;2024-01-30T01:49:05;2.75;;;1.10;;
44973;SDS011;60981;50.720;11.342;2024-01-30T01:50:09;4.13;;;1.95;;
44973;SDS011;60981;50.720;11.342;2024-01-30T01:51:12;4.22;;;1.80;;
44973;SDS011;60981;50.720;11.342;2024-01-30T01:52:15;3.85;;;2.10;;
44973;SDS011;60981;50.720;11.342;2024-01-30T01:53:21;4.55;;;2.15;;
44973;SDS011;60981;50.720;11.342;2024-01-30T01:54:25;5.75;;;3.10;;
44973;SDS011;60981;50.720;11.342;2024-01-30T01:55:29;4.30;;;2.70;;
44973;SDS011;60981;50.720;11.342;2024-01-30T01:56:35;8.52;;;3.45;;
44973;SDS011;60981;50.720;11.342;2024-01-30T01:57:45;7.25;;;2.83;;
44973;SDS011;60981;50.720;11.342;2024-01-30T01:58:52;4.68;;;2.35;;
44973;SDS011;60981;50.720;11.342;2024-01-30T01:59:55;4.30;;;2.25;;
44973;SDS011;60981;50.720;11.342;2024-01-30T02:01:02;4.05;;;2.33;;
44973;SDS011;60981;50.720;11.342;2024-01-30T02:02:08;6.25;;;2.88;;
44973;SDS011;60981;50.720;11.342;2024-01-30T02:03:15;5.28;;;2.67;;
44973;SDS011;60981;50.720;11.342;2024-01-30T02:04:19;7.35;;;2.33;;
44973;SDS011;60981;50.720;11.342;2024-01-30T02:05:24;6.20;;;3.08;;
44973;SDS011;60981;50.720;11.342;2024-01-30T02:06:28;4.55;;;2.53;;
44973;SDS011;60981;50.720;11.342;2024-01-30T02:07:34;4.82;;;1.92;;
44973;SDS011;60981;50.720;11.342;2024-01-30T02:08:37;3.88;;;2.00;;
44973;SDS011;60981;50.720;11.342;2024-01-30T02:09:38;5.95;;;2.75;;
44973;SDS011;60981;50.720;11.342;2024-01-30T02:10:43;4.72;;;2.63;;
44973;SDS011;60981;50.720;11.342;2024-01-30T02:11:51;4.85;;;1.65;;
44973;SDS011;60981;50.720;11.342;2024-01-30T02:12:55;3.03;;;1.33;;
44973;SDS011;60981;50.720;11.342;2024-01-30T02:14:02;3.38;;;1.65;;
44973;SDS011;60981;50.720;11.342;2024-01-30T02:15:06;6.35;;;1.52;;
44973;SDS011;60981;50.720;11.342;2024-01-30T02:16:10;3.30;;;1.45;;
44973;SDS011;60981;50.720;11.342;2024-01-30T02:17:15;2.92;;;1.55;;
44973;SDS011;60981;50.720;11.342;2024-01-30T02:18:25;3.72;;;2.10;;
44973;SDS011;60981;50.720;11.342;2024-01-30T02:19:28;8.18;;;2.85;;
44973;SDS011;60981;50.720;11.342;2024-01-30T02:20:34;3.92;;;1.85;;
44973;SDS011;60981;50.720;11.342;2024-01-30T02:21:41;4.38;;;2.22;;
44973;SDS011;60981;50.720;11.342;2024-01-30T02:22:43;5.05;;;1.45;;
44973;SDS011;60981;50.720;11.342;2024-01-30T02:23:48;2.88;;;1.20;;
44973;SDS011;60981;50.720;11.342;2024-01-30T02:24:51;1.92;;;0.90;;
44973;SDS011;60981;50.720;11.342;2024-01-30T02:25:56;4.07;;;1.83;;
44973;SDS011;60981;50.720;11.342;2024-01-30T02:27:01;3.58;;;1.33;;
44973;SDS011;60981;50.720;11.342;2024-01-30T02:28:07;3.05;;;1.80;;
44973;SDS011;60981;50.720;11.342;2024-01-30T02:29:10;2.28;;;0.90;;
44973;SDS011;60981;50.720;11.342;2024-01-30T02:30:13;3.75;;;1.70;;
44973;SDS011;60981;50.720;11.342;2024-01-30T02:31:18;3.40;;;1.60;;
44973;SDS011;60981;50.720;11.342;2024-01-30T02:32:23;2.83;;;1.30;;
44973;SDS011;60981;50.720;11.342;2024-01-30T02:33:24;3.60;;;1.63;;
44973;SDS011;60981;50.720;11.342;2024-01-30T02:34:26;2.28;;;1.20;;
44973;SDS011;60981;50.720;11.342;2024-01-30T02:35:30;2.97;;;1.45;;
44973;SDS011;60981;50.720;11.342;2024-01-30T02:36:34;3.97;;;1.77;;
44973;SDS011;60981;50.720;11.342;2024-01-30T02:37:39;3.45;;;1.35;;
44973;SDS011;60981;50.720;11.342;2024-01-30T02:40:38;2.75;;;1.30;;
44973;SDS011;60981;50.720;11.342;2024-01-30T02:41:40;3.25;;;1.33;;
44973;SDS011;60981;50.720;11.342;2024-01-30T02:42:42;2.17;;;1.15;;
44973;SDS011;60981;50.720;11.342;2024-01-30T02:43:45;2.88;;;1.25;;
44973;SDS011;60981;50.720;11.342;2024-01-30T02:44:49;2.72;;;1.52;;
44973;SDS011;60981;50.720;11.342;2024-01-30T02:45:51;3.85;;;1.45;;
44973;SDS011;60981;50.720;11.342;2024-01-30T02:46:54;3.03;;;1.45;;
44973;SDS011;60981;50.720;11.342;2024-01-30T02:47:58;3.00;;;1.50;;
44973;SDS011;60981;50.720;11.342;2024-01-30T02:49:01;3.30;;;1.50;;
44973;SDS011;60981;50.720;11.342;2024-01-30T02:50:05;2.50;;;1.30;;
44973;SDS011;60981;50.720;11.342;2024-01-30T02:51:12;2.45;;;1.38;;
44973;SDS011;60981;50.720;11.342;2024-01-30T02:52:14;3.17;;;1.35;;
44973;SDS011;60981;50.720;11.342;2024-01-30T02:53:17;3.03;;;1.45;;
44973;SDS011;60981;50.720;11.342;2024-01-30T02:54:20;3.28;;;1.48;;
44973;SDS011;60981;50.720;11.342;2024-01-30T02:55:27;3.17;;;1.63;;
44973;SDS011;60981;50.720;11.342;2024-01-30T02:56:32;2.47;;;1.20;;
44973;SDS011;60981;50.720;11.342;2024-01-30T02:57:38;2.95;;;1.13;;
44973;SDS011;60981;50.720;11.342;2024-01-30T02:58:41;3.92;;;1.90;;
44973;SDS011;60981;50.720;11.342;2024-01-30T02:59:48;4.82;;;1.48;;
44973;SDS011;60981;50.720;11.342;2024-01-30T03:00:51;3.33;;;1.17;;
44973;SDS011;60981;50.720;11.342;2024-01-30T03:01:56;13.02;;;1.95;;
44973;SDS011;60981;50.720;11.342;2024-01-30T03:03:00;3.55;;;1.58;;
44973;SDS011;60981;50.720;11.342;2024-01-30T03:04:03;2.17;;;1.45;;
44973;SDS011;60981;50.720;11.342;2024-01-30T03:05:07;2.97;;;1.27;;
44973;SDS011;60981;50.720;11.342;2024-01-30T03:06:09;1.80;;;1.00;;
44973;SDS011;60981;50.720;11.342;2024-01-30T03:07:12;4.80;;;1.60;;
44973;SDS011;60981;50.720;11.342;2024-01-30T03:08:18;2.30;;;1.30;;
44973;SDS011;60981;50.720;11.342;2024-01-30T03:09:23;2.75;;;0.98;;
44973;SDS011;60981;50.720;11.342;2024-01-30T03:10:29;2.88;;;1.00;;
44973;SDS011;60981;50.720;11.342;2024-01-30T03:11:33;2.33;;;1.38;;
44973;SDS011;60981;50.720;11.342;2024-01-30T03:12:36;4.32;;;1.50;;
44973;SDS011;60981;50.720;11.342;2024-01-30T03:13:41;2.60;;;1.58;;
44973;SDS011;60981;50.720;11.342;2024-01-30T03:14:43;5.22;;;1.73;;
44973;SDS011;60981;50.720;11.342;2024-01-30T03:15:47;3.33;;;1.20;;
44973;SDS011;60981;50.720;11.342;2024-01-30T03:16:50;2.17;;;1.10;;
44973;SDS011;60981;50.720;11.342;2024-01-30T03:17:56;3.25;;;1.20;;
44973;SDS011;60981;50.720;11.342;2024-01-30T03:19:03;3.55;;;1.20;;
44973;SDS011;60981;50.720;11.342;2024-01-30T03:20:06;3.22;;;1.52;;
44973;SDS011;60981;50.720;11.342;2024-01-30T03:21:09;3.65;;;1.92;;
44973;SDS011;60981;50.720;11.342;2024-01-30T03:22:14;4.45;;;0.98;;
44973;SDS011;60981;50.720;11.342;2024-01-30T03:23:17;1.75;;;0.98;;
44973;SDS011;60981;50.720;11.342;2024-01-30T03:24:20;5.10;;;1.95;;
44973;SDS011;60981;50.720;11.342;2024-01-30T03:25:22;4.32;;;1.20;;
44973;SDS011;60981;50.720;11.342;2024-01-30T03:26:25;3.22;;;1.52;;
44973;SDS011;60981;50.720;11.342;2024-01-30T03:29:09;3.90;;;1.73;;
44973;SDS011;60981;50.720;11.342;2024-01-30T03:30:13;1.85;;;0.90;;
44973;SDS011;60981;50.720;11.342;2024-01-30T03:31:19;2.65;;;1.33;;
44973;SDS011;60981;50.720;11.342;2024-01-30T03:32:25;2.78;;;1.48;;
44973;SDS011;60981;50.720;11.342;2024-01-30T03:33:28;2.35;;;1.25;;
44973;SDS011;60981;50.720;11.342;2024-01-30T03:34:33;3.35;;;1.60;;
44973;SDS011;60981;50.720;11.342;2024-01-30T03:35:39;1.75;;;0.90;;
44973;SDS011;60981;50.720;11.342;2024-01-30T03:36:43;6.00;;;1.70;;
44973;SDS011;60981;50.720;11.342;2024-01-30T03:37:46;1.95;;;1.02;;
44973;SDS011;60981;50.720;11.342;2024-01-30T03:38:49;3.42;;;1.30;;
44973;SDS011;60981;50.720;11.342;2024-01-30T03:39:54;2.72;;;1.45;;
44973;SDS011;60981;50.720;11.342;2024-01-30T03:40:59;7.63;;;1.63;;
44973;SDS011;60981;50.720;11.342;2024-01-30T03:42:02;3.05;;;1.20;;
44973;SDS011;60981;50.720;11.342;2024-01-30T03:43:05;4.55;;;1.50;;
44973;SDS011;60981;50.720;11.342;2024-01-30T03:44:07;2.92;;;1.40;;
44973;SDS011;60981;50.720;11.342;2024-01-30T03:45:15;3.75;;;1.15;;
44973;SDS011;60981;50.720;11.342;2024-01-30T03:46:18;6.05;;;1.40;;
44973;SDS011;60981;50.720;11.342;2024-01-30T03:47:22;4.07;;;1.85;;
44973;SDS011;60981;50.720;11.342;2024-01-30T03:48:25;3.88;;;1.33;;
44973;SDS011;60981;50.720;11.342;2024-01-30T03:49:31;2.28;;;1.02;;
44973;SDS011;60981;50.720;11.342;2024-01-30T03:50:34;2.20;;;1.00;;
44973;SDS011;60981;50.720;11.342;2024-01-30T03:51:38;4.05;;;1.48;;
44973;SDS011;60981;50.720;11.342;2024-01-30T03:52:45;9.32;;;1.17;;
44973;SDS011;60981;50.720;11.342;2024-01-30T03:53:50;2.60;;;1.40;;
44973;SDS011;60981;50.720;11.342;2024-01-30T03:54:53;2.55;;;1.45;;
44973;SDS011;60981;50.720;11.342;2024-01-30T03:55:56;2.75;;;1.35;;
44973;SDS011;60981;50.720;11.342;2024-01-30T03:57:02;2.90;;;1.02;;
44973;SDS011;60981;50.720;11.342;2024-01-30T03:58:05;1.65;;;0.60;;
44973;SDS011;60981;50.720;11.342;2024-01-30T03:59:09;3.05;;;1.33;;
44973;SDS011;60981;50.720;11.342;2024-01-30T04:00:14;1.77;;;1.05;;
44973;SDS011;60981;50.720;11.342;2024-01-30T04:01:19;1.75;;;1.10;;
44973;SDS011;60981;50.720;11.342;2024-01-30T04:02:22;4.47;;;1.63;;
44973;SDS011;60981;50.720;11.342;2024-01-30T04:03:26;1.58;;;0.95;;
44973;SDS011;60981;50.720;11.342;2024-01-30T04:04:29;1.55;;;0.68;;
44973;SDS011;60981;50.720;11.342;2024-01-30T04:05:42;3.88;;;1.00;;
44973;SDS011;60981;50.720;11.342;2024-01-30T04:06:47;1.75;;;0.95;;
44973;SDS011;60981;50.720;11.342;2024-01-30T04:07:53;4.47;;;1.08;;
44973;SDS011;60981;50.720;11.342;2024-01-30T04:08:56;2.83;;;1.30;;
44973;SDS011;60981;50.720;11.342;2024-01-30T04:09:58;2.25;;;1.52;;
44973;SDS011;60981;50.720;11.342;2024-01-30T04:11:07;4.55;;;1.23;;
44973;SDS011;60981;50.720;11.342;2024-01-30T04:12:09;2.42;;;0.95;;
44973;SDS011;60981;50.720;11.342;2024-01-30T04:13:15;1.92;;;1.13;;
44973;SDS011;60981;50.720;11.342;2024-01-30T04:14:18;2.67;;;1.45;;
44973;SDS011;60981;50.720;11.342;2024-01-30T04:15:21;2.45;;;1.25;;
44973;SDS011;60981;50.720;11.342;2024-01-30T04:16:24;3.40;;;1.35;;
44973;SDS011;60981;50.720;11.342;2024-01-30T04:17:26;4.20;;;1.20;;
44973;SDS011;60981;50.720;11.342;2024-01-30T04:18:34;3.42;;;1.48;;
44973;SDS011;60981;50.720;11.342;2024-01-30T04:19:40;1.67;;;0.75;;
44973;SDS011;60981;50.720;11.342;2024-01-30T04:20:42;1.98;;;0.82;;
44973;SDS011;60981;50.720;11.342;2024-01-30T04:21:45;4.60;;;1.17;;
44973;SDS011;60981;50.720;11.342;2024-01-30T04:22:49;2.13;;;0.93;;
44973;SDS011;60981;50.720;11.342;2024-01-30T04:23:57;3.17;;;1.35;;
44973;SDS011;60981;50.720;11.342;2024-01-30T04:24:59;1.90;;;1.30;;
44973;SDS011;60981;50.720;11.342;2024-01-30T04:26:05;2.80;;;1.30;;
44973;SDS011;60981;50.720;11.342;2024-01-30T04:27:08;1.67;;;1.05;;
44973;SDS011;60981;50.720;11.342;2024-01-30T04:28:11;3.15;;;1.55;;
44973;SDS011;60981;50.720;11.342;2024-01-30T04:29:14;2.00;;;1.17;;
44973;SDS011;60981;50.720;11.342;2024-01-30T04:30:18;3.00;;;1.70;;
44973;SDS011;60981;50.720;11.342;2024-01-30T04:31:21;2.58;;;1.23;;
44973;SDS011;60981;50.720;11.342;2024-01-30T04:32:25;3.47;;;1.30;;
44973;SDS011;60981;50.720;11.342;2024-01-30T04:33:30;3.05;;;1.25;;
44973;SDS011;60981;50.720;11.342;2024-01-30T04:34:33;2.78;;;1.17;;
44973;SDS011;60981;50.720;11.342;2024-01-30T04:35:39;2.75;;;1.23;;
44973;SDS011;60981;50.720;11.342;2024-01-30T04:36:43;4.15;;;1.80;;
44973;SDS011;60981;50.720;11.342;2024-01-30T04:37:47;3.05;;;1.55;;
44973;SDS011;60981;50.720;11.342;2024-01-30T04:38:50;3.35;;;1.45;;
44973;SDS011;60981;50.720;11.342;2024-01-30T04:39:56;3.70;;;1.50;;
44973;SDS011;60981;50.720;11.342;2024-01-30T04:40:59;4.85;;;1.90;;
44973;SDS011;60981;50.720;11.342;2024-01-30T04:42:05;2.85;;;1.63;;
44973;SDS011;60981;50.720;11.342;2024-01-30T04:43:11;2.58;;;1.27;;
44973;SDS011;60981;50.720;11.342;2024-01-30T04:44:13;3.03;;;1.40;;
44973;SDS011;60981;50.720;11.342;2024-01-30T04:45:19;2.63;;;1.13;;
44973;SDS011;60981;50.720;11.342;2024-01-30T04:46:23;2.45;;;1.10;;
44973;SDS011;60981;50.720;11.342;2024-01-30T04:47:29;3.38;;;1.15;;
44973;SDS011;60981;50.720;11.342;2024-01-30T04:48:32;3.85;;;1.42;;
44973;SDS011;60981;50.720;11.342;2024-01-30T04:49:35;2.90;;;1.38;;
44973;SDS011;60981;50.720;11.342;2024-01-30T04:50:41;3.60;;;1.33;;
44973;SDS011;60981;50.720;11.342;2024-01-30T04:51:43;5.55;;;1.60;;
44973;SDS011;60981;50.720;11.342;2024-01-30T04:52:49;2.50;;;1.40;;
44973;SDS011;60981;50.720;11.342;2024-01-30T04:53:53;4.60;;;1.95;;
44973;SDS011;60981;50.720;11.342;2024-01-30T04:56:16;3.60;;;1.42;;
44973;SDS011;60981;50.720;11.342;2024-01-30T04:57:21;2.40;;;1.08;;
44973;SDS011;60981;50.720;11.342;2024-01-30T04:58:24;2.25;;;1.45;;
44973;SDS011;60981;50.720;11.342;2024-01-30T04:59:28;4.45;;;1.63;;
44973;SDS011;60981;50.720;11.342;2024-01-30T05:00:31;2.25;;;1.20;;
44973;SDS011;60981;50.720;11.342;2024-01-30T05:01:33;4.15;;;2.08;;
44973;SDS011;60981;50.720;11.342;2024-01-30T05:02:37;5.72;;;2.45;;
44973;SDS011;60981;50.720;11.342;2024-01-30T05:03:40;3.58;;;2.00;;
44973;SDS011;60981;50.720;11.342;2024-01-30T05:04:42;4.80;;;2.30;;
44973;SDS011;60981;50.720;11.342;2024-01-30T05:05:44;7.82;;;2.33;;
44973;SDS011;60981;50.720;11.342;2024-01-30T05:06:51;5.35;;;2.50;;
44973;SDS011;60981;50.720;11.342;2024-01-30T05:07:55;4.00;;;2.00;;
44973;SDS011;60981;50.720;11.342;2024-01-30T05:09:00;3.83;;;1.60;;
44973;SDS011;60981;50.720;11.342;2024-01-30T05:10:04;3.05;;;1.70;;
44973;SDS011;60981;50.720;11.342;2024-01-30T05:11:08;3.00;;;1.50;;
44973;SDS011;60981;50.720;11.342;2024-01-30T05:12:14;2.92;;;1.45;;
44973;SDS011;60981;50.720;11.342;2024-01-30T05:13:20;4.32;;;2.35;;
44973;SDS011;60981;50.720;11.342;2024-01-30T05:14:24;2.78;;;2.05;;
44973;SDS011;60981;50.720;11.342;2024-01-30T05:15:31;4.57;;;1.85;;
44973;SDS011;60981;50.720;11.342;2024-01-30T05:16:34;2.95;;;1.40;;
44973;SDS011;60981;50.720;11.342;2024-01-30T05:17:41;4.88;;;3.03;;
44973;SDS011;60981;50.720;11.342;2024-01-30T05:18:47;6.85;;;1.90;;
44973;SDS011;60981;50.720;11.342;2024-01-30T05:19:53;3.78;;;1.58;;
44973;SDS011;60981;50.720;11.342;2024-01-30T05:20:56;5.97;;;2.00;;
44973;SDS011;60981;50.720;11.342;2024-01-30T05:22:03;3.47;;;1.83;;
44973;SDS011;60981;50.720;11.342;2024-01-30T05:23:06;2.58;;;1.20;;
44973;SDS011;60981;50.720;11.342;2024-01-30T05:24:10;3.88;;;1.30;;
44973;SDS011;60981;50.720;11.342;2024-01-30T05:25:13;2.78;;;1.30;;
44973;SDS011;60981;50.720;11.342;2024-01-30T05:26:20;2.75;;;1.42;;
44973;SDS011;60981;50.720;11.342;2024-01-30T05:27:27;5.25;;;2.25;;
44973;SDS011;60981;50.720;11.342;2024-01-30T05:28:32;3.50;;;1.98;;
44973;SDS011;60981;50.720;11.342;2024-01-30T05:29:38;3.17;;;1.85;;
44973;SDS011;60981;50.720;11.342;2024-01-30T05:30:41;2.70;;;1.67;;
44973;SDS011;60981;50.720;11.342;2024-01-30T05:31:47;4.05;;;2.35;;
44973;SDS011;60981;50.720;11.342;2024-01-30T05:32:52;5.75;;;2.42;;
44973;SDS011;60981;50.720;11.342;2024-01-30T05:33:56;4.28;;;2.45;;
44973;SDS011;60981;50.720;11.342;2024-01-30T05:35:02;3.97;;;2.22;;
44973;SDS011;60981;50.720;11.342;2024-01-30T05:36:11;4.78;;;1.90;;
44973;SDS011;60981;50.720;11.342;2024-01-30T05:37:14;5.53;;;1.98;;
44973;SDS011;60981;50.720;11.342;2024-01-30T05:38:19;2.85;;;1.48;;
44973;SDS011;60981;50.720;11.342;2024-01-30T05:39:23;3.00;;;1.55;;
44973;SDS011;60981;50.720;11.342;2024-01-30T05:40:28;2.38;;;1.50;;
44973;SDS011;60981;50.720;11.342;2024-01-30T05:41:34;3.33;;;1.38;;
44973;SDS011;60981;50.720;11.342;2024-01-30T05:42:43;4.43;;;1.92;;
44973;SDS011;60981;50.720;11.342;2024-01-30T05:43:46;5.80;;;1.83;;
44973;SDS011;60981;50.720;11.342;2024-01-30T05:44:47;3.92;;;1.83;;
44973;SDS011;60981;50.720;11.342;2024-01-30T05:45:50;3.97;;;1.55;;
44973;SDS011;60981;50.720;11.342;2024-01-30T05:46:55;3.95;;;1.67;;
44973;SDS011;60981;50.720;11.342;2024-01-30T05:47:59;3.67;;;1.70;;
44973;SDS011;60981;50.720;11.342;2024-01-30T05:49:02;4.63;;;1.80;;
44973;SDS011;60981;50.720;11.342;2024-01-30T05:50:10;3.15;;;1.63;;
44973;SDS011;60981;50.720;11.342;2024-01-30T05:51:13;6.53;;;1.73;;
44973;SDS011;60981;50.720;11.342;2024-01-30T05:52:18;3.40;;;1.67;;
44973;SDS011;60981;50.720;11.342;2024-01-30T05:53:24;4.00;;;1.92;;
44973;SDS011;60981;50.720;11.342;2024-01-30T05:54:28;3.07;;;1.33;;
44973;SDS011;60981;50.720;11.342;2024-01-30T05:55:31;2.85;;;1.52;;
44973;SDS011;60981;50.720;11.342;2024-01-30T05:56:34;2.53;;;1.50;;
44973;SDS011;60981;50.720;11.342;2024-01-30T05:57:40;2.97;;;1.50;;
44973;SDS011;60981;50.720;11.342;2024-01-30T05:58:43;2.53;;;1.42;;
44973;SDS011;60981;50.720;11.342;2024-01-30T05:59:49;2.55;;;1.25;;
44973;SDS011;60981;50.720;11.342;2024-01-30T06:00:53;5.75;;;1.63;;
44973;SDS011;60981;50.720;11.342;2024-01-30T06:02:00;3.00;;;1.10;;
44973;SDS011;60981;50.720;11.342;2024-01-30T06:03:07;2.58;;;1.30;;
44973;SDS011;60981;50.720;11.342;2024-01-30T06:04:10;3.25;;;1.50;;
44973;SDS011;60981;50.720;11.342;2024-01-30T06:05:13;2.40;;;1.58;;
44973;SDS011;60981;50.720;11.342;2024-01-30T06:06:17;4.22;;;2.03;;
44973;SDS011;60981;50.720;11.342;2024-01-30T06:07:21;3.95;;;1.88;;
44973;SDS011;60981;50.720;11.342;2024-01-30T06:08:27;3.70;;;2.25;;
44973;SDS011;60981;50.720;11.342;2024-01-30T06:09:32;4.63;;;1.95;;
44973;SDS011;60981;50.720;11.342;2024-01-30T06:10:36;5.70;;;2.38;;
44973;SDS011;60981;50.720;11.342;2024-01-30T06:11:39;6.78;;;3.13;;
44973;SDS011;60981;50.720;11.342;2024-01-30T06:12:41;3.70;;;1.88;;
44973;SDS011;60981;50.720;11.342;2024-01-30T06:13:44;4.50;;;1.98;;
44973;SDS011;60981;50.720;11.342;2024-01-30T06:16:29;5.72;;;3.38;;
44973;SDS011;60981;50.720;11.342;2024-01-30T06:17:34;6.18;;;3.10;;
44973;SDS011;60981;50.720;11.342;2024-01-30T06:18:40;5.47;;;3.23;;
44973;SDS011;60981;50.720;11.342;2024-01-30T06:19:43;7.10;;;3.97;;
44973;SDS011;60981;50.720;11.342;2024-01-30T06:20:46;6.60;;;4.15;;
44973;SDS011;60981;50.720;11.342;2024-01-30T06:21:49;7.38;;;4.10;;
44973;SDS011;60981;50.720;11.342;2024-01-30T06:22:54;5.28;;;3.30;;
44973;SDS011;60981;50.720;11.342;2024-01-30T06:24:09;5.97;;;3.25;;
44973;SDS011;60981;50.720;11.342;2024-01-30T06:25:14;4.25;;;2.42;;
44973;SDS011;60981;50.720;11.342;2024-01-30T06:26:17;4.03;;;2.33;;
44973;SDS011;60981;50.720;11.342;2024-01-30T06:27:20;5.50;;;2.85;;
44973;SDS011;60981;50.720;11.342;2024-01-30T06:28:23;3.10;;;1.92;;
44973;SDS011;60981;50.720;11.342;2024-01-30T06:29:33;6.35;;;3.00;;
44973;SDS011;60981;50.720;11.342;2024-01-30T06:30:39;4.43;;;2.75;;
44973;SDS011;60981;50.720;11.342;2024-01-30T06:31:44;6.15;;;2.83;;
44973;SDS011;60981;50.720;11.342;2024-01-30T06:32:47;6.30;;;3.22;;